Time;durP1;ratioP1;P1;durP2;ratioP2;P2;SDS_P1;SDS_P2;PMS_P1;PMS_P2;Temp;Humidity;BMP_temperature;BMP_pressure;BME280_temperature;BME280_humidity;BME280_pressure;Samples;Min_cycle;Max_cycle;Signal;HPM_P1;HPM_P2
2024/04/18 00:02:08;;;;;;;2.63;1.02;;;15.40;94.40;;;;;;5418012;26;19999;-39
2024/04/18 00:04:33;;;;;;;1.63;1.08;;;15.40;94.50;;;;;;5418015;26;20000;-41
2024/04/18 00:07:00;;;;;;;1.35;0.88;;;15.40;94.40;;;;;;5417712;26;20012;-38
2024/04/18 00:09:26;;;;;;;1.30;0.80;;;15.40;94.40;;;;;;5417747;26;20067;-39
2024/04/18 00:11:51;;;;;;;1.13;0.85;;;15.40;94.50;;;;;;5417656;26;20464;-39
2024/04/18 00:14:17;;;;;;;0.95;0.75;;;15.40;94.60;;;;;;5417795;26;20014;-39
2024/04/18 00:16:42;;;;;;;1.38;0.95;;;15.40;94.50;;;;;;5417661;26;20352;-39
2024/04/18 00:19:08;;;;;;;1.00;0.80;;;15.40;94.50;;;;;;5417696;26;20073;-39
2024/04/18 00:21:34;;;;;;;1.23;0.82;;;15.40;94.50;;;;;;5417612;26;20452;-40
2024/04/18 00:24:00;;;;;;;1.50;0.80;;;15.40;94.60;;;;;;5416311;26;20060;-40
2024/04/18 00:26:25;;;;;;;0.95;0.60;;;15.40;94.60;;;;;;5417684;26;19995;-40
2024/04/18 00:28:51;;;;;;;1.98;0.65;;;15.40;94.60;;;;;;5417629;26;19999;-39
2024/04/18 00:31:16;;;;;;;1.63;0.70;;;15.40;94.60;;;;;;5417659;26;20526;-41
2024/04/18 00:33:42;;;;;;;1.50;0.82;;;15.40;94.50;;;;;;5417745;26;20014;-39
2024/04/18 00:36:09;;;;;;;1.80;0.80;;;15.40;94.50;;;;;;5417652;26;19996;-38
2024/04/18 00:38:35;;;;;;;1.02;0.73;;;15.30;94.60;;;;;;5417523;26;19999;-39
2024/04/18 00:41:01;;;;;;;1.13;0.70;;;15.40;94.60;;;;;;5417682;26;20003;-39
2024/04/18 00:43:27;;;;;;;0.90;0.60;;;15.30;94.70;;;;;;5417688;26;20006;-41
2024/04/18 00:45:55;;;;;;;1.50;0.80;;;15.40;94.50;;;;;;5417602;26;20045;-41
2024/04/18 00:48:21;;;;;;;1.30;0.65;;;15.30;94.70;;;;;;5417517;26;20008;-39
2024/04/18 00:50:51;;;;;;;1.17;0.80;;;15.30;94.60;;;;;;5417362;26;19999;-41
2024/04/18 00:53:18;;;;;;;1.33;0.80;;;15.30;94.60;;;;;;5417603;26;20039;-41
2024/04/18 00:55:43;;;;;;;0.63;0.52;;;15.30;94.60;;;;;;5417458;26;20105;-40
2024/04/18 00:58:12;;;;;;;1.20;0.80;;;15.30;94.60;;;;;;5417180;26;19992;-42
2024/04/18 01:00:40;;;;;;;0.93;0.65;;;15.30;94.50;;;;;;5416933;26;20003;-39
2024/04/18 01:03:05;;;;;;;0.80;0.73;;;15.30;94.50;;;;;;5417348;26;20373;-39
2024/04/18 01:05:32;;;;;;;0.80;0.60;;;15.30;94.50;;;;;;5417233;26;20002;-39
2024/04/18 01:07:58;;;;;;;0.82;0.52;;;15.30;94.50;;;;;;5417380;26;20003;-38
2024/04/18 01:10:23;;;;;;;1.23;0.82;;;15.30;94.60;;;;;;5416901;26;19999;-41
2024/04/18 01:12:59;;;;;;;1.10;0.70;;;15.30;94.50;;;;;;5417070;26;19999;-41
2024/04/18 01:15:28;;;;;;;0.60;0.50;;;15.40;94.60;;;;;;5417017;26;20373;-39
2024/04/18 01:17:54;;;;;;;1.35;0.60;;;15.30;94.50;;;;;;5417109;26;20396;-42
2024/04/18 01:20:24;;;;;;;0.65;0.43;;;15.30;94.40;;;;;;5416866;26;19995;-38
2024/04/18 01:22:50;;;;;;;0.98;0.60;;;15.30;94.80;;;;;;5417111;26;20073;-41
2024/04/18 01:25:16;;;;;;;1.15;0.77;;;15.30;94.50;;;;;;5417067;26;20011;-39
2024/04/18 01:27:42;;;;;;;0.80;0.63;;;15.30;94.40;;;;;;5416838;26;20007;-39
2024/04/18 01:30:08;;;;;;;1.10;0.68;;;15.30;94.40;;;;;;5416677;26;20454;-38
2024/04/18 01:32:35;;;;;;;3.17;0.70;;;15.30;94.40;;;;;;5417278;26;20329;-41
2024/04/18 01:35:01;;;;;;;1.10;0.63;;;15.30;94.30;;;;;;5416130;26;19999;-39
2024/04/18 01:37:27;;;;;;;1.33;0.70;;;15.30;94.40;;;;;;5416593;26;20325;-39
2024/04/18 01:39:53;;;;;;;1.05;0.70;;;15.30;94.50;;;;;;5416615;26;20006;-38
2024/04/18 01:42:20;;;;;;;0.68;0.50;;;15.30;94.70;;;;;;5416734;26;20003;-40
2024/04/18 01:44:46;;;;;;;0.60;0.45;;;15.30;94.50;;;;;;5416652;26;20004;-40
2024/04/18 01:47:13;;;;;;;1.00;0.50;;;15.30;94.50;;;;;;5416994;26;19995;-39
2024/04/18 01:49:38;;;;;;;1.00;0.50;;;15.30;94.40;;;;;;5416809;26;20411;-41
2024/04/18 01:52:05;;;;;;;0.98;0.70;;;15.30;94.40;;;;;;5417236;26;20007;-39
2024/04/18 01:54:32;;;;;;;0.90;0.50;;;15.30;94.40;;;;;;5420134;26;20000;-38
2024/04/18 01:56:58;;;;;;;0.60;0.50;;;15.30;94.50;;;;;;5420614;26;20040;-39
2024/04/18 01:59:23;;;;;;;2.25;0.60;;;15.30;94.40;;;;;;5420611;26;20364;-38
2024/04/18 02:01:49;;;;;;;0.80;0.60;;;15.30;94.30;;;;;;5416424;26;20011;-39
2024/04/18 02:04:17;;;;;;;1.52;0.77;;;15.30;94.40;;;;;;5416447;26;20007;-38
2024/04/18 02:06:43;;;;;;;0.80;0.50;;;15.30;94.40;;;;;;5414850;26;20363;-39
2024/04/18 02:09:09;;;;;;;0.57;0.43;;;15.30;94.40;;;;;;5416368;26;19995;-39
2024/04/18 02:11:41;;;;;;;1.35;0.60;;;15.30;94.40;;;;;;5416276;26;20064;-41
2024/04/18 02:14:07;;;;;;;1.00;0.60;;;15.30;94.40;;;;;;5416396;26;19996;-39
2024/04/18 02:16:33;;;;;;;1.08;0.40;;;15.30;94.40;;;;;;5416308;26;20014;-39
2024/04/18 02:18:59;;;;;;;0.82;0.50;;;15.30;94.40;;;;;;5416184;26;20028;-41
2024/04/18 02:21:24;;;;;;;2.35;0.60;;;15.20;94.40;;;;;;5414432;26;20329;-43
2024/04/18 02:23:53;;;;;;;1.13;0.50;;;15.30;94.30;;;;;;5416246;26;20333;-40
2024/04/18 02:26:19;;;;;;;0.85;0.50;;;15.30;94.30;;;;;;5416273;26;20360;-39
2024/04/18 02:28:44;;;;;;;0.98;0.60;;;15.30;94.40;;;;;;5416097;26;19999;-39
2024/04/18 02:31:10;;;;;;;0.40;0.30;;;15.20;94.40;;;;;;5415952;26;20007;-39
2024/04/18 02:33:35;;;;;;;0.75;0.60;;;15.30;94.50;;;;;;5416151;26;20000;-39
2024/04/18 02:36:01;;;;;;;0.70;0.60;;;15.30;94.40;;;;;;5416305;26;19995;-39
2024/04/18 02:38:29;;;;;;;1.00;0.50;;;15.30;94.40;;;;;;5414235;26;20015;-39
2024/04/18 02:41:04;;;;;;;0.88;0.60;;;15.20;94.40;;;;;;5416629;26;20072;-39
2024/04/18 02:43:30;;;;;;;0.70;0.52;;;15.20;94.40;;;;;;5416633;26;20010;-39
2024/04/18 02:45:56;;;;;;;0.45;0.40;;;15.20;94.30;;;;;;5415474;26;20610;-39
2024/04/18 02:48:22;;;;;;;0.82;0.50;;;15.20;94.50;;;;;;5415734;26;20467;-39
2024/04/18 02:50:47;;;;;;;1.10;0.68;;;15.20;94.50;;;;;;5416224;26;20018;-39
2024/04/18 02:53:13;;;;;;;0.65;0.47;;;15.20;94.40;;;;;;5416066;26;20007;-38
2024/04/18 02:55:39;;;;;;;0.50;0.50;;;15.20;94.40;;;;;;5416134;26;20003;-39
2024/04/18 02:58:05;;;;;;;1.05;0.50;;;15.20;94.50;;;;;;5416076;26;20007;-39
2024/04/18 03:00:31;;;;;;;1.23;0.50;;;15.20;94.50;;;;;;5415176;26;20007;-39
2024/04/18 03:02:56;;;;;;;0.77;0.60;;;15.20;94.50;;;;;;5415604;26;19999;-39
2024/04/18 03:05:24;;;;;;;1.40;0.60;;;15.20;94.40;;;;;;5415596;26;20337;-40
2024/04/18 03:07:50;;;;;;;0.98;0.60;;;15.20;94.40;;;;;;5415516;26;20418;-39
2024/04/18 03:10:15;;;;;;;0.68;0.50;;;15.20;94.50;;;;;;5415304;26;20003;-40
2024/04/18 03:12:41;;;;;;;0.60;0.40;;;15.20;94.50;;;;;;5415306;26;20333;-40
2024/04/18 03:15:07;;;;;;;1.02;0.60;;;15.20;94.50;;;;;;5415088;26;20016;-39
2024/04/18 03:17:33;;;;;;;1.05;0.52;;;15.20;94.50;;;;;;5414960;26;20073;-39
2024/04/18 03:19:58;;;;;;;0.75;0.65;;;15.20;94.60;;;;;;5415074;26;20071;-39
2024/04/18 03:22:24;;;;;;;0.50;0.43;;;15.20;94.60;;;;;;5414996;26;20010;-40
2024/04/18 03:24:50;;;;;;;1.08;0.75;;;15.20;94.50;;;;;;5415219;26;20029;-40
2024/04/18 03:27:15;;;;;;;0.75;0.57;;;15.20;94.60;;;;;;5414988;26;20015;-40
2024/04/18 03:29:41;;;;;;;0.50;0.50;;;15.10;94.50;;;;;;5414738;26;20000;-40
2024/04/18 03:32:06;;;;;;;0.63;0.50;;;15.20;94.60;;;;;;5414695;26;19999;-40
2024/04/18 03:34:32;;;;;;;1.10;0.50;;;15.10;94.50;;;;;;5414889;26;20080;-39
2024/04/18 03:36:58;;;;;;;0.50;0.50;;;15.10;94.50;;;;;;5414801;26;20011;-39
2024/04/18 03:39:27;;;;;;;1.00;0.50;;;15.20;94.60;;;;;;5414611;26;19996;-40
2024/04/18 03:41:52;;;;;;;0.50;0.50;;;15.20;94.50;;;;;;5412956;26;20433;-40
2024/04/18 03:44:18;;;;;;;0.63;0.50;;;15.10;94.40;;;;;;5414545;26;19999;-39
2024/04/18 03:46:43;;;;;;;0.90;0.60;;;15.20;94.50;;;;;;5414694;26;19996;-40
2024/04/18 03:49:09;;;;;;;1.00;0.47;;;15.10;94.50;;;;;;5414515;26;20006;-40
2024/04/18 03:51:35;;;;;;;0.98;0.60;;;15.10;94.50;;;;;;5414449;26;19996;-40
2024/04/18 03:54:02;;;;;;;0.80;0.50;;;15.10;94.60;;;;;;5414425;26;20425;-40
2024/04/18 03:56:27;;;;;;;0.88;0.50;;;15.10;94.50;;;;;;5414429;26;20069;-39
2024/04/18 03:58:54;;;;;;;0.70;0.60;;;15.10;94.50;;;;;;5415151;26;19999;-39
2024/04/18 04:01:20;;;;;;;0.88;0.50;;;15.10;94.50;;;;;;5418183;26;20014;-40
2024/04/18 04:03:46;;;;;;;0.88;0.60;;;15.10;94.60;;;;;;5417961;26;19999;-40
2024/04/18 04:06:12;;;;;;;0.43;0.40;;;15.10;94.50;;;;;;5418049;26;19996;-40
2024/04/18 04:08:37;;;;;;;0.90;0.60;;;15.10;94.50;;;;;;5418020;26;19999;-40
2024/04/18 04:11:03;;;;;;;0.93;0.50;;;15.00;94.50;;;;;;5417796;26;20007;-39
2024/04/18 04:13:28;;;;;;;1.05;0.60;;;15.10;94.50;;;;;;5417880;26;20076;-39
2024/04/18 04:15:56;;;;;;;0.80;0.57;;;15.10;94.60;;;;;;5417885;26;20425;-40
2024/04/18 04:18:23;;;;;;;1.30;0.43;;;15.10;94.50;;;;;;5417888;26;20007;-40
2024/04/18 04:20:48;;;;;;;0.60;0.47;;;15.00;94.50;;;;;;5417396;26;20344;-40
2024/04/18 04:23:14;;;;;;;0.50;0.38;;;15.00;94.50;;;;;;5417878;26;19996;-40
2024/04/18 04:25:40;;;;;;;0.88;0.60;;;15.00;94.50;;;;;;5417975;26;20370;-39
2024/04/18 04:28:05;;;;;;;1.30;0.60;;;15.00;94.50;;;;;;5417838;26;19995;-39
2024/04/18 04:30:31;;;;;;;1.25;0.60;;;15.00;94.40;;;;;;5417772;26;20068;-40
2024/04/18 04:32:56;;;;;;;0.80;0.50;;;15.00;94.50;;;;;;5418315;26;20343;-40
2024/04/18 04:35:22;;;;;;;1.00;0.60;;;15.00;94.50;;;;;;5417563;26;20043;-40
2024/04/18 04:37:48;;;;;;;0.88;0.68;;;15.00;94.40;;;;;;5417403;26;20384;-40
2024/04/18 04:40:13;;;;;;;1.00;0.50;;;15.00;94.50;;;;;;5417253;26;20002;-39
2024/04/18 04:42:39;;;;;;;0.80;0.57;;;15.00;94.50;;;;;;5417654;26;20004;-39
2024/04/18 04:45:05;;;;;;;0.70;0.50;;;15.00;94.80;;;;;;5417616;26;19992;-40
2024/04/18 04:47:32;;;;;;;1.60;0.50;;;15.00;94.50;;;;;;5417431;26;20000;-40
2024/04/18 04:49:58;;;;;;;0.98;0.68;;;15.00;94.50;;;;;;5417179;26;19996;-40
2024/04/18 04:52:24;;;;;;;1.17;0.60;;;14.90;94.50;;;;;;5417275;26;20093;-39
2024/04/18 04:54:49;;;;;;;2.15;0.55;;;15.00;94.50;;;;;;5417257;26;19996;-40
2024/04/18 04:57:15;;;;;;;0.88;0.70;;;15.00;94.40;;;;;;5417449;26;19999;-39
2024/04/18 04:59:41;;;;;;;0.70;0.50;;;15.00;94.50;;;;;;5417226;26;19995;-40
2024/04/18 05:02:06;;;;;;;0.88;0.68;;;15.00;94.40;;;;;;5417420;26;19995;-40
2024/04/18 05:04:32;;;;;;;0.77;0.70;;;15.00;94.40;;;;;;5417295;26;20007;-40
2024/04/18 05:06:57;;;;;;;0.40;0.40;;;15.00;94.40;;;;;;5417486;26;20000;-39
2024/04/18 05:09:23;;;;;;;0.88;0.65;;;15.00;94.40;;;;;;5416034;26;19996;-40
2024/04/18 05:11:49;;;;;;;0.70;0.50;;;15.00;94.30;;;;;;5417061;26;20444;-40
2024/04/18 05:14:15;;;;;;;0.60;0.50;;;15.00;94.40;;;;;;5417141;26;19995;-40
2024/04/18 05:16:40;;;;;;;0.77;0.50;;;14.90;94.40;;;;;;5417094;26;20080;-40
2024/04/18 05:19:06;;;;;;;0.40;0.40;;;15.00;94.40;;;;;;5416871;26;20010;-40
2024/04/18 05:21:32;;;;;;;0.65;0.50;;;15.00;94.30;;;;;;5416740;26;20003;-39
2024/04/18 05:23:58;;;;;;;2.70;0.65;;;15.00;94.50;;;;;;5417072;26;20014;-40
2024/04/18 05:26:31;;;;;;;0.88;0.65;;;15.00;94.50;;;;;;5417273;26;20068;-40
2024/04/18 05:31:42;;;;;;;0.50;0.35;;;14.90;94.30;;;;;;5416437;26;20352;-39
2024/04/18 05:34:08;;;;;;;1.98;0.57;;;14.90;94.40;;;;;;5416772;26;19995;-40
2024/04/18 05:36:34;;;;;;;0.77;0.50;;;14.90;94.30;;;;;;5416982;26;20008;-40
2024/04/18 05:39:00;;;;;;;0.82;0.50;;;14.90;94.30;;;;;;5416466;26;20000;-40
2024/04/18 05:41:26;;;;;;;1.58;0.52;;;14.90;94.40;;;;;;5416397;26;20010;-39
2024/04/18 05:43:52;;;;;;;0.40;0.40;;;14.90;94.40;;;;;;5416783;26;20010;-40
2024/04/18 05:46:17;;;;;;;0.80;0.60;;;14.90;94.40;;;;;;5416602;26;20335;-39
2024/04/18 05:48:44;;;;;;;0.68;0.50;;;14.90;94.30;;;;;;5416695;26;20000;-40
2024/04/18 05:51:10;;;;;;;0.75;0.60;;;14.90;94.30;;;;;;5416451;26;20032;-40
2024/04/18 05:53:36;;;;;;;0.50;0.50;;;14.90;94.40;;;;;;5416558;26;19995;-40
2024/04/18 05:56:02;;;;;;;0.80;0.52;;;14.90;94.40;;;;;;5416639;26;20007;-40
2024/04/18 05:58:29;;;;;;;0.52;0.40;;;14.90;94.30;;;;;;5416517;26;19999;-39
2024/04/18 06:00:55;;;;;;;0.55;0.47;;;14.90;94.30;;;;;;5416284;26;20372;-40
2024/04/18 06:03:21;;;;;;;0.73;0.50;;;14.90;94.20;;;;;;5416709;26;19995;-40
2024/04/18 06:05:46;;;;;;;0.88;0.47;;;15.00;94.30;;;;;;5416739;26;20003;-39
2024/04/18 06:08:13;;;;;;;1.33;0.60;;;14.90;94.70;;;;;;5414643;26;20072;-39
2024/04/18 06:10:38;;;;;;;0.80;0.60;;;14.90;94.30;;;;;;5416186;26;19996;-40
2024/04/18 06:13:07;;;;;;;0.75;0.60;;;14.90;94.20;;;;;;5416349;26;20325;-40
2024/04/18 06:15:34;;;;;;;0.50;0.50;;;14.90;94.30;;;;;;5415973;26;20000;-40
2024/04/18 06:18:00;;;;;;;0.52;0.40;;;14.90;94.30;;;;;;5416086;26;20008;-40
2024/04/18 06:20:27;;;;;;;0.50;0.40;;;14.90;94.40;;;;;;5415996;26;20437;-39
2024/04/18 06:22:52;;;;;;;0.70;0.50;;;14.90;94.30;;;;;;5416119;26;20337;-40
2024/04/18 06:25:18;;;;;;;0.40;0.30;;;14.90;94.30;;;;;;5416049;26;20454;-40
2024/04/18 06:27:44;;;;;;;0.47;0.40;;;14.90;94.20;;;;;;5415904;26;20348;-40
2024/04/18 06:30:10;;;;;;;0.40;0.40;;;14.90;94.30;;;;;;5415889;26;19996;-40
2024/04/18 06:32:39;;;;;;;1.83;0.50;;;14.90;94.20;;;;;;5415926;26;20010;-40
2024/04/18 06:35:05;;;;;;;1.60;0.52;;;14.90;94.20;;;;;;5415907;26;20006;-40
2024/04/18 06:37:31;;;;;;;1.00;0.50;;;14.90;94.20;;;;;;5415753;26;19995;-40
2024/04/18 06:39:57;;;;;;;1.00;0.68;;;14.90;94.20;;;;;;5413849;26;19999;-40
2024/04/18 06:42:23;;;;;;;0.65;0.40;;;14.90;94.20;;;;;;5415947;26;20341;-40
2024/04/18 06:44:48;;;;;;;0.77;0.40;;;14.90;94.20;;;;;;5415715;26;19996;-41
2024/04/18 06:47:14;;;;;;;0.73;0.43;;;14.90;94.20;;;;;;5415791;26;20011;-40
2024/04/18 06:49:40;;;;;;;0.55;0.50;;;14.90;94.20;;;;;;5415867;26;20010;-40
2024/04/18 06:52:05;;;;;;;0.60;0.50;;;14.80;94.20;;;;;;5415732;26;20439;-41
2024/04/18 06:54:31;;;;;;;0.82;0.50;;;14.90;94.10;;;;;;5413844;26;20006;-40
2024/04/18 06:56:56;;;;;;;0.50;0.40;;;14.90;94.20;;;;;;5415536;26;20014;-40
2024/04/18 06:59:22;;;;;;;0.32;0.32;;;14.90;94.30;;;;;;5415683;26;20010;-40
2024/04/18 07:01:48;;;;;;;0.70;0.57;;;14.90;94.30;;;;;;5415018;26;20116;-40
2024/04/18 07:04:13;;;;;;;0.93;0.55;;;14.90;94.60;;;;;;5415386;26;20007;-40
2024/04/18 07:06:39;;;;;;;0.73;0.57;;;14.80;94.10;;;;;;5415415;26;20071;-41
2024/04/18 07:09:04;;;;;;;0.50;0.50;;;14.90;94.10;;;;;;5414543;26;20007;-40
2024/04/18 07:11:30;;;;;;;0.50;0.50;;;14.90;94.10;;;;;;5415082;26;20003;-40
2024/04/18 07:13:56;;;;;;;0.60;0.50;;;14.90;94.10;;;;;;5417167;26;20050;-39
2024/04/18 07:16:21;;;;;;;0.70;0.40;;;14.80;94.10;;;;;;5415938;26;19996;-40
2024/04/18 07:18:47;;;;;;;0.40;0.40;;;14.90;94.10;;;;;;5415132;26;20065;-40
2024/04/18 07:21:15;;;;;;;1.65;0.60;;;14.90;94.10;;;;;;5414908;26;20003;-40
2024/04/18 07:23:41;;;;;;;0.40;0.38;;;14.90;94.00;;;;;;5415144;26;20000;-40
2024/04/18 07:26:06;;;;;;;1.00;0.50;;;14.90;94.00;;;;;;5415159;26;20023;-40
2024/04/18 07:28:32;;;;;;;0.55;0.50;;;14.90;94.40;;;;;;5414957;26;20007;-40
2024/04/18 07:30:58;;;;;;;0.60;0.40;;;15.00;94.00;;;;;;5414781;26;19992;-40
2024/04/18 07:33:24;;;;;;;0.88;0.50;;;15.00;94.40;;;;;;5416875;26;20613;-40
2024/04/18 07:35:58;;;;;;;0.65;0.30;;;15.00;94.10;;;;;;5418986;26;20080;-40
2024/04/18 07:38:24;;;;;;;1.30;0.60;;;15.00;94.00;;;;;;5418323;26;19995;-40
2024/04/18 07:40:50;;;;;;;0.32;0.32;;;15.00;93.90;;;;;;5418491;26;20008;-40
2024/04/18 07:43:15;;;;;;;0.90;0.50;;;15.00;93.90;;;;;;5418478;26;20073;-40
2024/04/18 07:45:41;;;;;;;0.93;0.57;;;15.00;93.90;;;;;;5418295;26;19992;-40
2024/04/18 07:48:07;;;;;;;0.50;0.40;;;15.00;94.00;;;;;;5418157;26;20000;-40
2024/04/18 07:50:33;;;;;;;0.38;0.38;;;15.00;93.90;;;;;;5418118;26;19999;-39
2024/04/18 07:52:59;;;;;;;0.57;0.40;;;15.00;93.90;;;;;;5418187;26;20006;-40
2024/04/18 07:55:25;;;;;;;0.60;0.40;;;15.00;93.90;;;;;;5418178;26;20531;-40
2024/04/18 07:57:51;;;;;;;0.50;0.30;;;15.10;94.00;;;;;;5418043;26;20007;-40
2024/04/18 08:00:17;;;;;;;0.50;0.40;;;15.00;93.90;;;;;;5417851;26;19999;-40
2024/04/18 08:02:43;;;;;;;0.50;0.40;;;15.00;94.00;;;;;;5418243;26;20006;-40
2024/04/18 08:05:10;;;;;;;0.70;0.40;;;15.00;94.30;;;;;;5418068;26;20006;-40
2024/04/18 08:07:35;;;;;;;0.30;0.30;;;15.00;93.90;;;;;;5417743;26;20028;-40
2024/04/18 08:10:01;;;;;;;0.38;0.38;;;15.00;94.00;;;;;;5417920;26;20010;-40
2024/04/18 08:12:26;;;;;;;0.28;0.22;;;15.10;94.00;;;;;;5417888;26;20364;-40
2024/04/18 08:14:52;;;;;;;0.63;0.50;;;15.10;94.00;;;;;;5417633;26;20340;-39
2024/04/18 08:17:18;;;;;;;0.50;0.35;;;15.00;93.90;;;;;;5417851;26;19995;-40
2024/04/18 08:19:43;;;;;;;0.57;0.47;;;15.10;94.00;;;;;;5417766;26;20003;-39
2024/04/18 08:22:09;;;;;;;0.63;0.52;;;15.00;93.90;;;;;;5417359;26;19999;-40
2024/04/18 08:24:35;;;;;;;0.88;0.38;;;15.10;94.00;;;;;;5417735;26;20001;-39
2024/04/18 08:27:01;;;;;;;0.63;0.38;;;15.00;93.90;;;;;;5417969;26;20040;-40
2024/04/18 08:29:26;;;;;;;0.40;0.38;;;15.10;93.90;;;;;;5417566;26;19999;-40
2024/04/18 08:31:53;;;;;;;0.63;0.40;;;15.10;93.90;;;;;;5417596;26;20007;-40
2024/04/18 08:34:19;;;;;;;0.63;0.40;;;15.10;93.80;;;;;;5417808;26;19999;-40
2024/04/18 08:36:45;;;;;;;0.80;0.50;;;15.10;93.80;;;;;;5417375;26;20000;-40
2024/04/18 08:39:11;;;;;;;1.08;0.28;;;15.10;93.80;;;;;;5417758;26;20364;-41
2024/04/18 08:41:36;;;;;;;0.50;0.30;;;14.90;90.00;;;;;;5469178;21;20002;-47
2024/04/18 08:44:03;;;;;;;0.20;0.10;;;14.70;90.90;;;;;;5452920;26;20355;-43
2024/04/18 08:46:37;;;;;;;0.17;0.17;;;14.70;91.80;;;;;;5454784;26;19995;-41
2024/04/18 08:49:06;;;;;;;0.30;0.20;;;14.70;91.80;;;;;;5454181;26;20009;-44
2024/04/18 08:51:35;;;;;;;1.00;0.25;;;14.70;91.90;;;;;;5454738;26;19999;-43
2024/04/18 08:54:02;;;;;;;0.30;0.30;;;14.80;92.00;;;;;;5455809;26;20440;-40
2024/04/18 08:56:32;;;;;;;0.20;0.10;;;14.90;92.10;;;;;;5454046;26;19995;-44
2024/04/18 08:58:58;;;;;;;0.80;0.32;;;14.90;92.10;;;;;;5454274;26;20006;-41
2024/04/18 09:01:24;;;;;;;0.70;0.20;;;15.00;92.20;;;;;;5453495;26;20005;-43
2024/04/18 09:03:59;;;;;;;0.10;0.10;;;15.00;92.20;;;;;;5453442;26;20013;-41
2024/04/18 09:06:25;;;;;;;0.30;0.22;;;15.10;92.20;;;;;;5453801;26;20010;-45
2024/04/18 09:08:54;;;;;;;0.38;0.28;;;15.10;92.20;;;;;;5453852;26;20440;-41
2024/04/18 09:11:19;;;;;;;0.60;0.30;;;15.10;92.30;;;;;;5453446;26;19998;-41
2024/04/18 09:13:46;;;;;;;0.20;0.10;;;15.10;92.30;;;;;;5454066;26;19998;-40
2024/04/18 09:16:12;;;;;;;0.20;0.10;;;15.10;92.30;;;;;;5452967;26;20003;-40
2024/04/18 09:18:40;;;;;;;0.32;0.20;;;15.10;92.30;;;;;;5453033;26;20456;-43
2024/04/18 09:21:10;;;;;;;0.38;0.15;;;15.20;92.40;;;;;;5452969;26;19998;-41
2024/04/18 09:23:39;;;;;;;0.22;0.20;;;15.20;92.30;;;;;;5453241;26;20072;-41
2024/04/18 09:26:05;;;;;;;0.20;0.20;;;15.20;92.30;;;;;;5453078;26;20002;-41
2024/04/18 09:28:31;;;;;;;0.30;0.20;;;15.20;92.40;;;;;;5452902;26;19999;-45
2024/04/18 09:30:58;;;;;;;2.60;0.20;;;15.20;92.30;;;;;;5452632;26;20409;-44
2024/04/18 09:33:25;;;;;;;0.45;0.20;;;15.30;92.40;;;;;;5452731;26;20007;-44
2024/04/18 09:35:56;;;;;;;0.22;0.15;;;15.30;92.40;;;;;;5453040;26;20002;-44
2024/04/18 09:38:22;;;;;;;0.30;0.30;;;15.30;92.40;;;;;;5453629;26;20363;-44
2024/04/18 09:41:02;;;;;;;0.55;0.20;;;15.30;92.40;;;;;;5453071;26;19998;-44
2024/04/18 09:43:44;;;;;;;0.40;0.20;;;15.30;92.40;;;;;;5451600;26;20031;-45
2024/04/18 09:46:11;;;;;;;0.30;0.20;;;15.30;92.40;;;;;;5452818;26;19995;-42
2024/04/18 09:48:37;;;;;;;0.50;0.25;;;15.30;92.50;;;;;;5452577;26;19999;-41
2024/04/18 09:51:03;;;;;;;0.28;0.20;;;15.30;92.50;;;;;;5452339;26;20005;-44
2024/04/18 09:53:29;;;;;;;0.47;0.15;;;15.30;92.60;;;;;;5452389;26;20440;-44
2024/04/18 09:55:57;;;;;;;0.85;0.30;;;15.30;92.60;;;;;;5452239;26;19995;-41
2024/04/18 09:58:23;;;;;;;0.98;0.30;;;15.20;92.60;;;;;;5452044;26;20005;-44
2024/04/18 10:00:49;;;;;;;0.57;0.20;;;15.20;92.60;;;;;;5452259;26;20003;-43
2024/04/18 10:03:15;;;;;;;0.40;0.22;;;15.20;92.70;;;;;;5452478;26;20068;-44
2024/04/18 10:05:47;;;;;;;0.20;0.20;;;15.20;92.60;;;;;;5452490;26;20459;-45
2024/04/18 10:08:15;;;;;;;0.40;0.20;;;15.30;92.70;;;;;;5452923;26;19994;-41
2024/04/18 10:10:42;;;;;;;0.30;0.20;;;15.30;92.70;;;;;;5452013;26;20122;-41
2024/04/18 10:13:09;;;;;;;0.40;0.28;;;15.30;92.70;;;;;;5452455;26;20436;-42
2024/04/18 10:15:35;;;;;;;0.20;0.20;;;15.30;92.60;;;;;;5452504;26;20058;-46
2024/04/18 10:18:15;;;;;;;0.65;0.30;;;15.40;92.60;;;;;;5452117;26;19998;-41
2024/04/18 10:20:45;;;;;;;0.40;0.30;;;15.40;92.60;;;;;;5450195;26;20006;-41
2024/04/18 10:23:14;;;;;;;0.70;0.30;;;15.40;92.60;;;;;;5452339;26;20027;-45
2024/04/18 10:25:40;;;;;;;0.30;0.20;;;15.40;92.60;;;;;;5452494;26;19995;-41
2024/04/18 10:28:25;;;;;;;0.65;0.30;;;15.40;92.60;;;;;;5452277;26;20359;-44
2024/04/18 10:30:50;;;;;;;0.50;0.30;;;15.50;92.50;;;;;;5451662;26;20034;-41
2024/04/18 10:33:16;;;;;;;0.47;0.30;;;15.50;92.50;;;;;;5452129;26;20021;-41
2024/04/18 10:35:42;;;;;;;3.05;0.43;;;15.60;92.80;;;;;;5452381;26;19995;-41
2024/04/18 10:38:08;;;;;;;0.70;0.30;;;15.60;92.40;;;;;;5451843;26;19999;-41
2024/04/18 10:40:33;;;;;;;0.77;0.40;;;15.70;92.40;;;;;;5451794;26;20067;-44
2024/04/18 10:43:12;;;;;;;0.77;0.30;;;15.70;92.30;;;;;;5452181;26;20083;-41
2024/04/18 10:45:37;;;;;;;0.82;0.30;;;15.70;92.30;;;;;;5451861;26;19995;-44
2024/04/18 10:48:03;;;;;;;0.70;0.32;;;15.80;92.30;;;;;;5451722;26;20393;-44
2024/04/18 10:50:29;;;;;;;0.57;0.28;;;15.80;92.20;;;;;;5451718;26;20329;-43
2024/04/18 10:53:00;;;;;;;0.73;0.40;;;15.80;92.10;;;;;;5451537;26;20009;-47
2024/04/18 10:55:26;;;;;;;0.40;0.20;;;15.80;92.10;;;;;;5451596;26;19998;-45
2024/04/18 10:57:52;;;;;;;1.00;0.40;;;15.90;92.10;;;;;;5449550;26;20010;-43
2024/04/18 11:00:17;;;;;;;0.50;0.35;;;15.90;92.00;;;;;;5451406;26;19999;-41
2024/04/18 11:02:43;;;;;;;0.65;0.38;;;15.90;92.00;;;;;;5451514;26;19995;-41
2024/04/18 11:05:09;;;;;;;0.60;0.40;;;15.90;92.00;;;;;;5451522;26;20368;-41
2024/04/18 11:07:34;;;;;;;0.73;0.40;;;15.90;92.00;;;;;;5451991;26;20007;-41
2024/04/18 11:10:00;;;;;;;0.40;0.40;;;15.90;92.00;;;;;;5455346;26;19999;-44
2024/04/18 11:12:26;;;;;;;1.08;0.45;;;15.90;91.90;;;;;;5455071;26;20010;-41
2024/04/18 11:14:53;;;;;;;0.20;0.20;;;15.90;91.90;;;;;;5454987;26;20003;-41
2024/04/18 11:17:18;;;;;;;0.55;0.38;;;15.90;91.90;;;;;;5454835;26;20007;-45
2024/04/18 11:19:44;;;;;;;0.52;0.40;;;15.90;91.90;;;;;;5454946;26;20375;-44
2024/04/18 11:22:10;;;;;;;1.08;0.50;;;15.90;91.90;;;;;;5454332;26;20072;-45
2024/04/18 11:24:36;;;;;;;0.65;0.45;;;15.90;92.00;;;;;;5454953;26;20006;-45
2024/04/18 11:27:03;;;;;;;0.50;0.40;;;15.90;91.90;;;;;;5454949;26;19999;-41
2024/04/18 11:29:29;;;;;;;0.30;0.30;;;15.90;91.90;;;;;;5454643;26;20009;-41
2024/04/18 11:32:04;;;;;;;0.70;0.40;;;15.90;92.00;;;;;;5454564;26;19998;-45
2024/04/18 11:34:29;;;;;;;0.20;0.20;;;15.90;92.00;;;;;;5454519;26;20458;-42
2024/04/18 11:36:56;;;;;;;1.20;0.40;;;16.00;92.00;;;;;;5454523;26;19995;-43
2024/04/18 11:39:22;;;;;;;0.38;0.30;;;15.90;91.90;;;;;;5454902;26;20010;-41
2024/04/18 11:41:47;;;;;;;0.50;0.40;;;16.00;91.90;;;;;;5454229;26;19999;-45
2024/04/18 11:44:14;;;;;;;1.42;0.43;;;16.00;91.90;;;;;;5454284;26;19998;-44
2024/04/18 11:46:39;;;;;;;0.55;0.35;;;16.10;91.90;;;;;;5454269;26;19999;-43
2024/04/18 11:49:05;;;;;;;0.50;0.38;;;16.10;91.80;;;;;;5454591;26;19998;-42
2024/04/18 11:51:30;;;;;;;1.15;0.47;;;16.10;91.80;;;;;;5454270;26;20075;-41
2024/04/18 11:53:56;;;;;;;0.90;0.50;;;16.10;91.80;;;;;;5452404;26;20456;-43
2024/04/18 11:56:21;;;;;;;0.95;0.35;;;16.10;91.80;;;;;;5454121;26;20006;-41
2024/04/18 11:58:47;;;;;;;0.60;0.30;;;16.20;91.80;;;;;;5454022;26;19999;-43
2024/04/18 12:01:14;;;;;;;1.13;0.47;;;16.20;91.80;;;;;;5454117;26;20572;-45
2024/04/18 12:03:40;;;;;;;0.38;0.32;;;16.20;91.80;;;;;;5454063;26;19995;-41
2024/04/18 12:06:06;;;;;;;0.82;0.40;;;16.20;91.70;;;;;;5454012;26;20451;-42
2024/04/18 12:08:33;;;;;;;0.77;0.50;;;16.30;91.70;;;;;;5453795;26;20367;-42
2024/04/18 12:10:58;;;;;;;0.57;0.40;;;16.40;91.60;;;;;;5453814;26;19994;-40
2024/04/18 12:13:26;;;;;;;2.05;1.25;;;16.30;91.60;;;;;;5453936;26;20006;-42
2024/04/18 12:15:52;;;;;;;2.28;1.35;;;16.40;85.80;;;;;;5453694;26;19995;-42
2024/04/18 12:18:18;;;;;;;2.30;1.48;;;16.30;82.60;;;;;;5453418;26;19998;-40
2024/04/18 12:20:43;;;;;;;1.85;1.40;;;16.10;82.60;;;;;;5453938;26;20067;-39
2024/04/18 12:23:09;;;;;;;2.05;1.20;;;15.90;83.80;;;;;;5454551;26;19998;-41
2024/04/18 12:25:34;;;;;;;1.70;0.98;;;15.80;85.00;;;;;;5454116;26;20011;-39
2024/04/18 12:28:00;;;;;;;1.92;1.00;;;15.70;86.30;;;;;;5454314;26;20437;-39
2024/04/18 12:30:26;;;;;;;1.50;0.73;;;15.80;87.30;;;;;;5452244;26;20005;-41
2024/04/18 12:32:53;;;;;;;1.35;0.80;;;15.80;88.00;;;;;;5453738;26;20513;-41
2024/04/18 12:35:19;;;;;;;1.63;0.70;;;15.90;88.60;;;;;;5453709;26;19999;-39
2024/04/18 12:37:44;;;;;;;1.20;0.80;;;16.00;89.10;;;;;;5453870;26;20006;-39
2024/04/18 12:40:11;;;;;;;0.73;0.55;;;16.10;89.40;;;;;;5453477;26;20335;-39
2024/04/18 12:42:36;;;;;;;1.67;0.70;;;16.20;89.70;;;;;;5453704;26;20436;-41
2024/04/18 12:45:02;;;;;;;0.77;0.50;;;16.30;90.20;;;;;;5453974;26;19995;-40
2024/04/18 12:47:28;;;;;;;1.25;0.65;;;16.40;90.00;;;;;;5453578;26;20060;-41